Time;durP1;ratioP1;P1;durP2;ratioP2;P2;SDS_P1;SDS_P2;PMS_P1;PMS_P2;Temp;Humidity;BMP_temperature;BMP_pressure;BME280_temperature;BME280_humidity;BME280_pressure;Samples;Min_cycle;Max_cycle;Signal;HPM_P1;HPM_P2
2022/12/29 00:01:30;;;;;;;;;;;17.40;52.70;;;;;;10249687;28;1890;-75
2022/12/29 00:06:26;;;;;;;;;;;17.40;52.70;;;;;;10249941;28;823;-75
2022/12/29 00:11:21;;;;;;;;;;;17.40;52.70;;;;;;10249213;28;794;-75
2022/12/29 00:16:16;;;;;;;;;;;17.40;52.60;;;;;;10248962;28;791;-75
2022/12/29 00:36:54;;;;;;;;;;;17.40;52.80;;;;;;10248719;28;1347;-75
2022/12/29 00:47:04;;;;;;;;;;;17.40;52.90;;;;;;10247463;28;633;-75
2022/12/29 00:51:59;;;;;;;;;;;17.40;52.80;;;;;;10248212;28;894;-75
2022/12/29 00:56:54;;;;;;;;;;;17.40;53.00;;;;;;10247454;28;785;-75
2022/12/29 01:01:50;;;;;;;;;;;17.40;52.90;;;;;;10247230;28;1898;-75
2022/12/29 01:06:45;;;;;;;;;;;17.40;52.90;;;;;;10246985;28;777;-75
2022/12/29 01:11:41;;;;;;;;;;;17.40;52.90;;;;;;10246881;28;921;-75
2022/12/29 01:16:36;;;;;;;;;;;17.30;53.00;;;;;;10246701;28;822;-75
2022/12/29 01:21:31;;;;;;;;;;;17.30;52.90;;;;;;10246431;28;1902;-75
2022/12/29 01:26:27;;;;;;;;;;;17.30;53.00;;;;;;10246889;28;833;-75
2022/12/29 01:31:22;;;;;;;;;;;17.30;53.00;;;;;;10245895;28;941;-75
2022/12/29 01:36:17;;;;;;;;;;;17.30;53.00;;;;;;10245341;28;1380;-75
2022/12/29 01:41:13;;;;;;;;;;;17.30;53.00;;;;;;10245675;28;1922;-75
2022/12/29 01:46:08;;;;;;;;;;;17.40;53.00;;;;;;10245803;28;920;-75
2022/12/29 01:51:04;;;;;;;;;;;17.30;53.00;;;;;;10245352;28;881;-75
2022/12/29 01:56:02;;;;;;;;;;;17.40;53.10;;;;;;10245221;28;933;-75
2022/12/29 02:00:57;;;;;;;;;;;17.40;53.20;;;;;;10245557;28;1906;-75
2022/12/29 02:05:53;;;;;;;;;;;17.30;53.10;;;;;;10245483;28;935;-75
2022/12/29 02:10:48;;;;;;;;;;;17.40;53.20;;;;;;10245335;28;857;-75
2022/12/29 02:15:43;;;;;;;;;;;17.40;53.20;;;;;;10243956;28;1368;-75
2022/12/29 02:20:39;;;;;;;;;;;17.30;53.20;;;;;;10244610;28;1906;-75
2022/12/29 02:25:34;;;;;;;;;;;17.30;53.10;;;;;;10245548;28;898;-75
2022/12/29 02:30:29;;;;;;;;;;;17.30;53.10;;;;;;10243632;28;962;-75
2022/12/29 02:35:25;;;;;;;;;;;17.30;53.20;;;;;;10244774;28;1276;-75
2022/12/29 02:40:20;;;;;;;;;;;17.30;53.20;;;;;;10246127;28;1918;-75
2022/12/29 02:45:16;;;;;;;;;;;17.30;53.30;;;;;;10257419;28;786;-75
2022/12/29 02:50:11;;;;;;;;;;;17.30;53.20;;;;;;10257931;28;831;-75
2022/12/29 02:55:06;;;;;;;;;;;17.30;53.20;;;;;;10256655;28;1229;-75
2022/12/29 03:00:02;;;;;;;;;;;17.30;53.20;;;;;;10257065;28;1918;-75
2022/12/29 03:04:57;;;;;;;;;;;17.30;53.00;;;;;;10257226;28;753;-75
2022/12/29 03:09:53;;;;;;;;;;;17.30;53.20;;;;;;10256947;28;916;-75
2022/12/29 03:20:02;;;;;;;;;;;17.30;52.80;;;;;;10256253;28;1906;-75
2022/12/29 03:24:58;;;;;;;;;;;17.30;52.90;;;;;;10257244;28;835;-75
2022/12/29 03:29:53;;;;;;;;;;;17.30;53.00;;;;;;10256009;28;806;-75
2022/12/29 03:34:48;;;;;;;;;;;17.30;52.90;;;;;;10256926;28;1272;-75
2022/12/29 03:39:44;;;;;;;;;;;17.30;52.90;;;;;;10255677;28;1910;-75
2022/12/29 03:44:40;;;;;;;;;;;17.30;52.90;;;;;;10256318;28;912;-75
2022/12/29 03:49:36;;;;;;;;;;;17.30;52.90;;;;;;10256176;28;794;-75
2022/12/29 03:54:31;;;;;;;;;;;17.30;52.80;;;;;;10252038;28;797;-75
2022/12/29 03:59:26;;;;;;;;;;;17.30;52.80;;;;;;10249007;28;1902;-75
2022/12/29 04:04:22;;;;;;;;;;;17.30;52.80;;;;;;10250297;28;891;-75
2022/12/29 04:09:17;;;;;;;;;;;17.30;52.80;;;;;;10249893;28;810;-75
2022/12/29 04:14:12;;;;;;;;;;;17.30;52.80;;;;;;10249152;28;794;-75
2022/12/29 04:19:08;;;;;;;;;;;17.30;52.90;;;;;;10249963;28;1910;-75
2022/12/29 04:24:06;;;;;;;;;;;17.30;52.80;;;;;;10249979;28;877;-75
2022/12/29 04:29:01;;;;;;;;;;;17.30;52.80;;;;;;10248625;28;836;-75
2022/12/29 04:33:57;;;;;;;;;;;17.30;52.90;;;;;;10247821;28;1404;-75
2022/12/29 04:38:52;;;;;;;;;;;17.30;52.90;;;;;;10248789;28;1906;-75
2022/12/29 04:43:47;;;;;;;;;;;17.30;53.00;;;;;;10248642;28;861;-75
2022/12/29 04:48:43;;;;;;;;;;;17.20;52.90;;;;;;10248670;28;918;-75
2022/12/29 04:53:38;;;;;;;;;;;17.20;53.00;;;;;;10248265;28;1010;-75
2022/12/29 04:58:33;;;;;;;;;;;17.30;52.90;;;;;;10247406;28;1959;-75
2022/12/29 05:03:29;;;;;;;;;;;17.30;52.90;;;;;;10247668;28;1050;-75
2022/12/29 05:08:24;;;;;;;;;;;17.30;53.00;;;;;;10246836;28;956;-75
2022/12/29 05:13:20;;;;;;;;;;;17.30;52.90;;;;;;10246910;28;867;-75
2022/12/29 05:18:15;;;;;;;;;;;17.30;52.80;;;;;;10247402;28;1902;-75
2022/12/29 05:23:10;;;;;;;;;;;17.30;52.90;;;;;;10247215;28;836;-75
2022/12/29 05:28:06;;;;;;;;;;;17.30;52.80;;;;;;10245799;28;1044;-75
2022/12/29 05:33:01;;;;;;;;;;;17.30;52.70;;;;;;10245673;28;1328;-75
2022/12/29 05:37:56;;;;;;;;;;;17.40;52.70;;;;;;10245941;28;1913;-75
2022/12/29 05:42:52;;;;;;;;;;;17.40;52.60;;;;;;10245130;28;1409;-75
2022/12/29 05:47:47;;;;;;;;;;;17.40;52.60;;;;;;10245596;28;809;-75
2022/12/29 05:52:42;;;;;;;;;;;17.40;52.60;;;;;;10246044;28;886;-75
2022/12/29 05:57:38;;;;;;;;;;;17.40;52.60;;;;;;10245141;28;1957;-75
2022/12/29 06:02:33;;;;;;;;;;;17.40;52.50;;;;;;10245677;28;787;-75
2022/12/29 06:07:28;;;;;;;;;;;17.40;52.40;;;;;;10244277;28;793;-75
2022/12/29 06:12:24;;;;;;;;;;;17.40;52.40;;;;;;10245316;28;892;-75
2022/12/29 06:17:19;;;;;;;;;;;17.40;52.50;;;;;;10244974;28;917;-75
2022/12/29 06:22:15;;;;;;;;;;;17.40;52.40;;;;;;10244406;28;1903;-75
2022/12/29 06:27:10;;;;;;;;;;;17.40;52.40;;;;;;10244372;28;879;-75
2022/12/29 06:32:05;;;;;;;;;;;17.40;52.90;;;;;;10243963;28;983;-75
2022/12/29 06:37:01;;;;;;;;;;;17.40;52.40;;;;;;10244328;28;1134;-75
2022/12/29 06:41:56;;;;;;;;;;;17.50;52.40;;;;;;10243662;28;1922;-73
2022/12/29 06:46:52;;;;;;;;;;;17.50;52.30;;;;;;10244299;28;999;-73
2022/12/29 06:51:47;;;;;;;;;;;17.70;52.20;;;;;;10243600;28;782;-73
2022/12/29 06:56:42;;;;;;;;;;;17.80;52.30;;;;;;10244072;28;920;-72
2022/12/29 07:01:38;;;;;;;;;;;17.80;52.40;;;;;;10243440;28;1971;-73
2022/12/29 07:06:33;;;;;;;;;;;17.80;52.10;;;;;;10244142;28;861;-73
2022/12/29 07:11:29;;;;;;;;;;;17.80;52.00;;;;;;10243192;28;826;-72
2022/12/29 07:16:24;;;;;;;;;;;17.80;52.20;;;;;;10243084;28;964;-73
2022/12/29 07:21:19;;;;;;;;;;;17.80;52.30;;;;;;10242940;28;1910;-72
2022/12/29 07:26:17;;;;;;;;;;;17.80;52.00;;;;;;10243773;28;931;-72
2022/12/29 07:31:12;;;;;;;;;;;17.80;52.20;;;;;;10249682;28;1113;-72
2022/12/29 07:36:08;;;;;;;;;;;17.80;52.40;;;;;;10249873;28;1558;-72
2022/12/29 07:41:03;;;;;;;;;;;17.90;52.50;;;;;;10250104;28;1914;-73
2022/12/29 07:45:58;;;;;;;;;;;17.90;52.50;;;;;;10250536;28;819;-72
2022/12/29 07:50:54;;;;;;;;;;;18.00;52.40;;;;;;10249778;28;1005;-72
2022/12/29 07:55:49;;;;;;;;;;;17.90;52.40;;;;;;10249576;28;890;-72
2022/12/29 08:00:45;;;;;;;;;;;17.90;52.70;;;;;;10248764;28;1910;-72
2022/12/29 08:05:40;;;;;;;;;;;17.90;52.50;;;;;;10250834;28;969;-72
2022/12/29 08:10:35;;;;;;;;;;;17.90;52.70;;;;;;10248867;28;913;-70
2022/12/29 08:15:31;;;;;;;;;;;18.00;52.50;;;;;;10249754;28;901;-70
2022/12/29 08:20:26;;;;;;;;;;;18.00;52.40;;;;;;10248913;28;1914;-69
2022/12/29 08:25:21;;;;;;;;;;;17.90;52.20;;;;;;10248803;28;778;-73
2022/12/29 08:30:17;;;;;;;;;;;17.90;52.40;;;;;;10248490;28;860;-74
2022/12/29 08:35:18;;;;;;;;;;;18.00;52.40;;;;;;10248922;28;1134;-74
2022/12/29 08:40:13;;;;;;;;;;;17.90;52.50;;;;;;10248366;28;1910;-74
2022/12/29 08:45:09;;;;;;;;;;;18.00;52.40;;;;;;10249183;28;878;-74
2022/12/29 08:50:04;;;;;;;;;;;18.00;52.70;;;;;;10247285;28;905;-73
2022/12/29 08:54:59;;;;;;;;;;;18.00;51.90;;;;;;10248281;28;905;-74
2022/12/29 08:59:55;;;;;;;;;;;18.00;52.10;;;;;;10247978;28;1965;-74
2022/12/29 09:04:50;;;;;;;;;;;17.90;51.80;;;;;;10247323;28;807;-73
2022/12/29 09:09:46;;;;;;;;;;;18.00;51.70;;;;;;10247097;28;871;-73
2022/12/29 09:14:42;;;;;;;;;;;18.00;51.60;;;;;;10247617;28;853;-74
2022/12/29 09:19:38;;;;;;;;;;;18.00;51.70;;;;;;10247240;28;1959;-74
2022/12/29 09:24:33;;;;;;;;;;;18.00;51.70;;;;;;10246453;28;942;-74
2022/12/29 09:29:28;;;;;;;;;;;18.00;51.70;;;;;;10245726;28;890;-74
2022/12/29 09:34:24;;;;;;;;;;;18.00;51.50;;;;;;10245838;28;1242;-74
2022/12/29 09:39:19;;;;;;;;;;;18.00;51.60;;;;;;10245881;28;1918;-74
2022/12/29 09:44:14;;;;;;;;;;;18.00;51.90;;;;;;10245218;28;803;-74
2022/12/29 09:49:10;;;;;;;;;;;18.10;51.90;;;;;;10246162;28;885;-74
2022/12/29 09:54:05;;;;;;;;;;;18.10;51.90;;;;;;10245835;28;891;-74
2022/12/29 09:59:00;;;;;;;;;;;18.00;51.80;;;;;;10245143;28;1965;-74
2022/12/29 10:03:56;;;;;;;;;;;18.00;51.80;;;;;;10245615;28;886;-74
2022/12/29 10:08:51;;;;;;;;;;;18.00;51.80;;;;;;10245467;28;808;-74
2022/12/29 10:13:46;;;;;;;;;;;18.10;51.80;;;;;;10245336;28;822;-74
2022/12/29 10:18:42;;;;;;;;;;;18.00;51.60;;;;;;10244602;28;1902;-71
2022/12/29 10:23:37;;;;;;;;;;;18.00;51.40;;;;;;10244660;28;943;-72
2022/12/29 10:28:33;;;;;;;;;;;18.00;51.40;;;;;;10244979;28;869;-80
2022/12/29 10:33:28;;;;;;;;;;;18.00;51.30;;;;;;10244846;28;1370;-74
2022/12/29 10:38:24;;;;;;;;;;;18.00;51.10;;;;;;10244612;28;1984;-75
2022/12/29 10:43:19;;;;;;;;;;;18.00;51.40;;;;;;10243428;28;1167;-75
2022/12/29 10:48:14;;;;;;;;;;;18.10;50.80;;;;;;10243612;28;944;-74
2022/12/29 10:53:10;;;;;;;;;;;18.10;51.00;;;;;;10244422;28;834;-74
2022/12/29 10:58:05;;;;;;;;;;;18.10;50.90;;;;;;10243081;28;2025;-75
2022/12/29 11:03:00;;;;;;;;;;;18.10;50.40;;;;;;10244020;28;1193;-74
2022/12/29 11:07:56;;;;;;;;;;;18.10;51.00;;;;;;10248623;28;940;-74
2022/12/29 11:12:51;;;;;;;;;;;18.10;50.90;;;;;;10250798;28;893;-74
2022/12/29 11:17:46;;;;;;;;;;;18.10;50.60;;;;;;10250955;28;805;-73
2022/12/29 11:22:42;;;;;;;;;;;18.10;50.90;;;;;;10250701;28;1977;-74
2022/12/29 11:27:37;;;;;;;;;;;18.10;50.00;;;;;;10251385;28;961;-74
2022/12/29 11:32:32;;;;;;;;;;;18.10;50.00;;;;;;10250324;28;1435;-74
2022/12/29 11:37:28;;;;;;;;;;;18.10;50.10;;;;;;10249924;28;814;-71
2022/12/29 11:42:23;;;;;;;;;;;18.10;50.30;;;;;;10250598;28;1976;-72
2022/12/29 11:47:19;;;;;;;;;;;18.10;50.10;;;;;;10250265;28;1010;-74
2022/12/29 11:52:14;;;;;;;;;;;18.10;50.20;;;;;;10250124;28;801;-74
2022/12/29 11:57:09;;;;;;;;;;;18.10;50.00;;;;;;10249873;28;825;-72
2022/12/29 12:02:05;;;;;;;;;;;18.10;49.80;;;;;;10250306;28;1902;-73
2022/12/29 12:07:00;;;;;;;;;;;18.20;49.40;;;;;;10249586;28;833;-73
2022/12/29 12:11:56;;;;;;;;;;;18.10;49.50;;;;;;10249455;28;818;-76
2022/12/29 12:16:51;;;;;;;;;;;18.10;49.60;;;;;;10248493;28;943;-75
2022/12/29 12:21:46;;;;;;;;;;;17.90;50.00;;;;;;10248935;28;1960;-75
2022/12/29 12:26:42;;;;;;;;;;;17.80;50.00;;;;;;10249628;28;810;-76
2022/12/29 12:31:38;;;;;;;;;;;17.80;49.70;;;;;;10248703;28;956;-75
2022/12/29 12:36:33;;;;;;;;;;;17.70;49.80;;;;;;10248168;28;1129;-75
2022/12/29 12:41:28;;;;;;;;;;;17.70;50.30;;;;;;10248248;28;1969;-75
2022/12/29 12:46:24;;;;;;;;;;;17.70;50.00;;;;;;10247855;28;898;-75
2022/12/29 12:51:19;;;;;;;;;;;17.70;49.80;;;;;;10247563;28;837;-75
2022/12/29 12:56:15;;;;;;;;;;;17.70;50.00;;;;;;10247356;28;904;-75
2022/12/29 13:01:11;;;;;;;;;;;17.70;49.90;;;;;;10247967;28;1949;-77
2022/12/29 13:06:06;;;;;;;;;;;17.70;49.60;;;;;;10246968;28;840;-76
2022/12/29 13:11:01;;;;;;;;;;;17.70;49.80;;;;;;10246948;28;858;-79
2022/12/29 13:15:57;;;;;;;;;;;17.60;49.70;;;;;;10245206;28;1007;-76
2022/12/29 13:20:52;;;;;;;;;;;17.70;49.90;;;;;;10246186;28;1902;-76
2022/12/29 13:25:47;;;;;;;;;;;17.60;49.60;;;;;;10245196;28;802;-76
2022/12/29 13:30:43;;;;;;;;;;;17.70;49.50;;;;;;10245943;28;860;-78
2022/12/29 13:35:38;;;;;;;;;;;17.70;49.70;;;;;;10245748;28;1347;-77
2022/12/29 13:40:34;;;;;;;;;;;17.70;49.70;;;;;;10246002;28;1975;-77
2022/12/29 13:45:29;;;;;;;;;;;17.70;49.70;;;;;;10245942;28;942;-76
2022/12/29 13:50:24;;;;;;;;;;;17.70;49.80;;;;;;10245251;28;851;-79
2022/12/29 13:55:20;;;;;;;;;;;17.70;49.90;;;;;;10245178;28;921;-77
2022/12/29 14:00:15;;;;;;;;;;;17.70;49.50;;;;;;10245504;28;1894;-78
2022/12/29 14:05:10;;;;;;;;;;;17.70;49.80;;;;;;10244799;28;915;-78
2022/12/29 14:10:06;;;;;;;;;;;17.60;49.70;;;;;;10244701;28;897;-78
2022/12/29 14:15:01;;;;;;;;;;;17.70;50.30;;;;;;10244434;28;876;-78
2022/12/29 14:19:56;;;;;;;;;;;17.70;49.90;;;;;;10244643;28;1961;-78
2022/12/29 14:24:52;;;;;;;;;;;17.70;49.70;;;;;;10244297;28;879;-78
2022/12/29 14:29:47;;;;;;;;;;;17.70;49.60;;;;;;10244094;28;936;-78
2022/12/29 14:34:43;;;;;;;;;;;17.70;49.60;;;;;;10244280;28;1153;-78
2022/12/29 14:39:38;;;;;;;;;;;17.70;49.60;;;;;;10244042;28;1906;-78
2022/12/29 14:44:33;;;;;;;;;;;17.70;49.70;;;;;;10243756;28;856;-78
2022/12/29 14:49:29;;;;;;;;;;;17.70;49.60;;;;;;10244308;28;822;-77
2022/12/29 14:54:24;;;;;;;;;;;17.70;49.50;;;;;;10244154;28;887;-79
2022/12/29 14:59:20;;;;;;;;;;;17.70;49.40;;;;;;10243463;28;1953;-77
2022/12/29 15:04:16;;;;;;;;;;;17.70;49.30;;;;;;10243306;28;911;-79
2022/12/29 15:09:11;;;;;;;;;;;17.70;49.50;;;;;;10243196;28;869;-78
2022/12/29 15:14:06;;;;;;;;;;;17.70;49.50;;;;;;10243250;28;791;-79
2022/12/29 15:19:02;;;;;;;;;;;17.70;49.30;;;;;;10243619;28;1949;-79
2022/12/29 15:23:57;;;;;;;;;;;17.70;49.60;;;;;;10242941;28;906;-78
2022/12/29 15:28:54;;;;;;;;;;;17.60;49.40;;;;;;10243566;28;800;-77
2022/12/29 15:33:49;;;;;;;;;;;17.70;49.40;;;;;;10242871;28;1413;-75
2022/12/29 15:38:45;;;;;;;;;;;17.70;49.20;;;;;;10243587;28;1914;-77
2022/12/29 15:43:40;;;;;;;;;;;17.70;48.90;;;;;;10243402;28;949;-77
2022/12/29 15:48:35;;;;;;;;;;;17.60;49.20;;;;;;10244386;28;896;-78
2022/12/29 15:53:31;;;;;;;;;;;17.60;49.00;;;;;;10249819;28;831;-77
2022/12/29 15:58:27;;;;;;;;;;;17.60;48.90;;;;;;10249336;28;1967;-78
2022/12/29 16:03:22;;;;;;;;;;;17.70;49.10;;;;;;10249529;28;793;-77
2022/12/29 16:08:17;;;;;;;;;;;17.70;48.80;;;;;;10249195;28;763;-77
2022/12/29 16:13:13;;;;;;;;;;;17.60;49.00;;;;;;10249187;28;773;-77
2022/12/29 16:18:08;;;;;;;;;;;17.60;48.90;;;;;;10248864;28;1906;-79
2022/12/29 16:23:04;;;;;;;;;;;17.60;49.10;;;;;;10248786;28;854;-77
2022/12/29 16:27:59;;;;;;;;;;;17.60;49.20;;;;;;10247986;28;879;-77
2022/12/29 16:32:55;;;;;;;;;;;17.60;48.80;;;;;;10248247;28;1205;-77
2022/12/29 16:37:50;;;;;;;;;;;17.60;49.10;;;;;;10248232;28;798;-78
2022/12/29 16:42:46;;;;;;;;;;;17.60;49.20;;;;;;10247883;28;1971;-77
2022/12/29 16:47:43;;;;;;;;;;;17.60;48.70;;;;;;10247102;28;949;-78
2022/12/29 16:52:39;;;;;;;;;;;17.60;48.90;;;;;;10248246;28;868;-77
2022/12/29 16:57:34;;;;;;;;;;;17.60;49.00;;;;;;10247907;28;829;-77
2022/12/29 17:02:30;;;;;;;;;;;17.60;49.00;;;;;;10246787;28;1894;-77
2022/12/29 17:07:25;;;;;;;;;;;17.60;49.10;;;;;;10246997;28;874;-77
2022/12/29 17:12:20;;;;;;;;;;;17.60;49.00;;;;;;10246869;28;861;-77
2022/12/29 17:17:16;;;;;;;;;;;17.60;49.00;;;;;;10246088;28;845;-77
2022/12/29 17:22:11;;;;;;;;;;;17.60;49.00;;;;;;10246320;28;1886;-77
2022/12/29 17:27:07;;;;;;;;;;;17.60;48.90;;;;;;10245658;28;865;-75
2022/12/29 17:32:02;;;;;;;;;;;17.60;48.80;;;;;;10246098;28;774;-76
2022/12/29 17:36:57;;;;;;;;;;;17.70;49.10;;;;;;10245909;28;1272;-76
2022/12/29 17:41:53;;;;;;;;;;;17.60;48.90;;;;;;10245582;28;1969;-77
2022/12/29 17:46:48;;;;;;;;;;;17.70;49.00;;;;;;10244414;28;1015;-77
2022/12/29 17:51:43;;;;;;;;;;;17.70;48.90;;;;;;10245251;28;863;-77
2022/12/29 17:56:39;;;;;;;;;;;17.70;48.90;;;;;;10245088;28;861;-77
2022/12/29 18:01:34;;;;;;;;;;;17.70;49.20;;;;;;10245578;28;1961;-77
2022/12/29 18:06:29;;;;;;;;;;;17.60;48.90;;;;;;10245070;28;872;-77
2022/12/29 18:11:25;;;;;;;;;;;17.70;48.90;;;;;;10244166;28;876;-77
2022/12/29 18:16:20;;;;;;;;;;;17.70;49.00;;;;;;10244513;28;829;-78
2022/12/29 18:21:16;;;;;;;;;;;17.70;48.60;;;;;;10244319;28;1902;-78
2022/12/29 18:26:11;;;;;;;;;;;17.70;48.90;;;;;;10244338;28;802;-78
2022/12/29 18:31:06;;;;;;;;;;;17.70;48.90;;;;;;10244185;28;849;-78
2022/12/29 18:36:02;;;;;;;;;;;17.70;48.80;;;;;;10244595;28;1212;-78
2022/12/29 18:40:57;;;;;;;;;;;17.70;49.00;;;;;;10244433;28;1973;-76
2022/12/29 18:45:52;;;;;;;;;;;17.70;48.80;;;;;;10244091;28;874;-77
2022/12/29 18:50:50;;;;;;;;;;;17.60;48.90;;;;;;10244609;28;814;-78
2022/12/29 18:55:46;;;;;;;;;;;17.70;49.10;;;;;;10243930;28;790;-77
2022/12/29 19:00:41;;;;;;;;;;;17.70;49.10;;;;;;10243692;28;1898;-77
2022/12/29 19:05:36;;;;;;;;;;;17.70;49.20;;;;;;10243158;28;881;-77
2022/12/29 19:10:32;;;;;;;;;;;17.70;49.30;;;;;;10243663;28;892;-77
2022/12/29 19:15:27;;;;;;;;;;;17.70;49.30;;;;;;10243743;28;893;-78
2022/12/29 19:20:22;;;;;;;;;;;17.70;49.30;;;;;;10243429;28;1957;-79
2022/12/29 19:25:18;;;;;;;;;;;17.70;49.30;;;;;;10248094;28;876;-77
2022/12/29 19:30:13;;;;;;;;;;;17.70;49.20;;;;;;10251097;28;900;-78
2022/12/29 19:35:09;;;;;;;;;;;17.70;49.30;;;;;;10250662;28;1207;-78
2022/12/29 19:40:04;;;;;;;;;;;17.60;49.20;;;;;;10250812;28;1969;-78
2022/12/29 19:45:01;;;;;;;;;;;17.70;49.00;;;;;;10251150;28;867;-78
2022/12/29 19:49:57;;;;;;;;;;;17.70;49.00;;;;;;10250961;28;857;-78
2022/12/29 19:54:52;;;;;;;;;;;17.70;49.10;;;;;;10250822;28;975;-78
2022/12/29 19:59:47;;;;;;;;;;;17.70;48.70;;;;;;10250568;28;1960;-78
2022/12/29 20:04:43;;;;;;;;;;;17.70;48.90;;;;;;10249619;28;921;-78
2022/12/29 20:09:38;;;;;;;;;;;17.70;49.00;;;;;;10250863;28;881;-78
2022/12/29 20:14:33;;;;;;;;;;;17.70;48.80;;;;;;10249418;28;787;-78
2022/12/29 20:19:29;;;;;;;;;;;17.70;48.90;;;;;;10249091;28;1890;-78
2022/12/29 20:24:24;;;;;;;;;;;17.70;48.80;;;;;;10249045;28;867;-78
2022/12/29 20:29:20;;;;;;;;;;;17.70;48.60;;;;;;10248971;28;916;-78
2022/12/29 20:34:15;;;;;;;;;;;17.70;48.90;;;;;;10247725;28;1476;-78
2022/12/29 20:39:10;;;;;;;;;;;17.70;48.60;;;;;;10247864;28;1977;-76
2022/12/29 20:44:06;;;;;;;;;;;17.70;48.90;;;;;;10248322;28;1055;-78
2022/12/29 20:49:01;;;;;;;;;;;17.70;48.70;;;;;;10247528;28;830;-78
2022/12/29 20:53:56;;;;;;;;;;;17.60;49.20;;;;;;10247951;28;877;-74
2022/12/29 20:58:52;;;;;;;;;;;17.80;48.80;;;;;;10247711;28;1957;-74
2022/12/29 21:03:48;;;;;;;;;;;18.10;48.60;;;;;;10247470;28;968;-78
2022/12/29 21:08:44;;;;;;;;;;;17.90;48.80;;;;;;10247922;28;862;-78
2022/12/29 21:13:39;;;;;;;;;;;17.70;49.10;;;;;;10247403;28;822;-79
2022/12/29 21:18:34;;;;;;;;;;;17.60;49.20;;;;;;10246890;28;1898;-77
2022/12/29 21:23:30;;;;;;;;;;;17.60;48.90;;;;;;10246927;28;948;-77
2022/12/29 21:28:25;;;;;;;;;;;17.60;49.10;;;;;;10246558;28;793;-77
2022/12/29 21:33:21;;;;;;;;;;;17.60;49.00;;;;;;10246698;28;1086;-77
2022/12/29 21:38:16;;;;;;;;;;;17.60;48.70;;;;;;10247050;28;1910;-77
2022/12/29 21:43:11;;;;;;;;;;;17.60;48.80;;;;;;10246079;28;799;-77
2022/12/29 21:48:27;;;;;;;;;;;17.60;48.60;;;;;;10245051;28;873;-77
2022/12/29 21:53:30;;;;;;;;;;;17.60;48.80;;;;;;10245656;28;815;-77
2022/12/29 22:14:09;;;;;;;;;;;17.60;48.50;;;;;;10244756;28;628;-78
2022/12/29 22:19:06;;;;;;;;;;;17.60;48.60;;;;;;10245966;28;1965;-78
2022/12/29 22:24:02;;;;;;;;;;;17.60;48.70;;;;;;10245275;28;879;-78
2022/12/29 22:28:57;;;;;;;;;;;17.60;48.80;;;;;;10244550;28;789;-77
2022/12/29 22:33:52;;;;;;;;;;;17.60;48.50;;;;;;10244924;28;1726;-77
2022/12/29 22:38:48;;;;;;;;;;;17.60;48.70;;;;;;10244232;28;1969;-77
2022/12/29 22:43:43;;;;;;;;;;;17.60;48.80;;;;;;10244143;28;858;-78
2022/12/29 22:48:38;;;;;;;;;;;17.60;48.70;;;;;;10244614;28;841;-77
2022/12/29 22:53:34;;;;;;;;;;;17.60;48.70;;;;;;10244586;28;852;-77
2022/12/29 22:58:29;;;;;;;;;;;17.60;48.80;;;;;;10246705;28;1898;-77
2022/12/29 23:03:25;;;;;;;;;;;17.60;48.80;;;;;;10251884;28;1039;-77
2022/12/29 23:08:20;;;;;;;;;;;17.60;48.80;;;;;;10251904;28;892;-77
2022/12/29 23:13:15;;;;;;;;;;;17.50;48.20;;;;;;10251183;28;1163;-77
2022/12/29 23:18:11;;;;;;;;;;;17.60;48.60;;;;;;10251613;28;759;-77
2022/12/29 23:23:06;;;;;;;;;;;17.60;48.70;;;;;;10252093;28;1894;-77
2022/12/29 23:28:01;;;;;;;;;;;17.60;48.70;;;;;;10251251;28;829;-77
2022/12/29 23:32:57;;;;;;;;;;;17.60;48.70;;;;;;10251790;28;1333;-77
2022/12/29 23:37:52;;;;;;;;;;;17.50;48.50;;;;;;10251463;28;841;-77
2022/12/29 23:42:47;;;;;;;;;;;17.60;48.70;;;;;;10251430;28;1907;-77
2022/12/29 23:47:43;;;;;;;;;;;17.60;48.80;;;;;;10250552;28;1218;-77
2022/12/29 23:52:38;;;;;;;;;;;17.60;48.70;;;;;;10250361;28;850;-77
2022/12/29 23:57:34;;;;;;;;;;;17.60;48.50;;;;;;10250081;28;867;-77
